sensor_id;sensor_type;location;lat;lon;timestamp;temperature;humidity
71436;SHT31;59251;51.326;12.370;2023-02-18T00:00:54;9.55;90.56
71436;SHT31;59251;51.326;12.370;2023-02-18T00:03:21;9.46;90.55
71436;SHT31;59251;51.326;12.370;2023-02-18T00:05:47;9.32;89.76
71436;SHT31;59251;51.326;12.370;2023-02-18T00:08:12;9.26;90.01
71436;SHT31;59251;51.326;12.370;2023-02-18T00:10:40;9.21;89.60
71436;SHT31;59251;51.326;12.370;2023-02-18T00:13:06;9.11;88.73
71436;SHT31;59251;51.326;12.370;2023-02-18T00:15:34;9.04;87.74
71436;SHT31;59251;51.326;12.370;2023-02-18T00:17:59;9.04;86.57
71436;SHT31;59251;51.326;12.370;2023-02-18T00:20:24;9.01;86.51
71436;SHT31;59251;51.326;12.370;2023-02-18T00:22:50;8.97;84.91
71436;SHT31;59251;51.326;12.370;2023-02-18T00:25:15;8.87;84.90
71436;SHT31;59251;51.326;12.370;2023-02-18T00:27:40;8.87;84.58
71436;SHT31;59251;51.326;12.370;2023-02-18T00:30:06;8.87;84.35
71436;SHT31;59251;51.326;12.370;2023-02-18T00:32:33;8.77;85.09
71436;SHT31;59251;51.326;12.370;2023-02-18T00:34:59;8.92;83.89
71436;SHT31;59251;51.326;12.370;2023-02-18T00:37:24;8.84;83.69
71436;SHT31;59251;51.326;12.370;2023-02-18T00:39:50;8.80;83.51
71436;SHT31;59251;51.326;12.370;2023-02-18T00:42:15;8.73;83.83
71436;SHT31;59251;51.326;12.370;2023-02-18T00:44:40;8.77;83.05
71436;SHT31;59251;51.326;12.370;2023-02-18T00:47:06;8.81;82.26
71436;SHT31;59251;51.326;12.370;2023-02-18T00:49:31;8.87;81.81
71436;SHT31;59251;51.326;12.370;2023-02-18T00:51:57;8.88;81.84
71436;SHT31;59251;51.326;12.370;2023-02-18T00:54:22;8.87;81.68
71436;SHT31;59251;51.326;12.370;2023-02-18T00:56:47;8.77;82.29
71436;SHT31;59251;51.326;12.370;2023-02-18T00:59:13;8.91;81.96
71436;SHT31;59251;51.326;12.370;2023-02-18T01:01:38;8.84;81.72
71436;SHT31;59251;51.326;12.370;2023-02-18T01:04:03;8.78;82.30
71436;SHT31;59251;51.326;12.370;2023-02-18T01:06:29;8.94;81.85
71436;SHT31;59251;51.326;12.370;2023-02-18T01:08:54;8.85;81.69
71436;SHT31;59251;51.326;12.370;2023-02-18T01:11:21;8.80;82.36
71436;SHT31;59251;51.326;12.370;2023-02-18T01:13:46;8.94;81.62
71436;SHT31;59251;51.326;12.370;2023-02-18T01:16:12;8.94;81.38
71436;SHT31;59251;51.326;12.370;2023-02-18T01:18:38;8.90;81.94
71436;SHT31;59251;51.326;12.370;2023-02-18T01:21:04;8.78;82.25
71436;SHT31;59251;51.326;12.370;2023-02-18T01:23:32;8.98;81.24
71436;SHT31;59251;51.326;12.370;2023-02-18T01:25:58;9.03;80.67
71436;SHT31;59251;51.326;12.370;2023-02-18T01:28:23;9.03;80.42
71436;SHT31;59251;51.326;12.370;2023-02-18T01:30:50;9.01;80.26
71436;SHT31;59251;51.326;12.370;2023-02-18T01:33:16;8.81;81.11
71436;SHT31;59251;51.326;12.370;2023-02-18T01:35:42;8.84;80.31
71436;SHT31;59251;51.326;12.370;2023-02-18T01:38:08;8.90;79.03
71436;SHT31;59251;51.326;12.370;2023-02-18T01:40:33;9.01;78.41
71436;SHT31;59251;51.326;12.370;2023-02-18T01:42:59;8.83;79.08
71436;SHT31;59251;51.326;12.370;2023-02-18T01:49:03;8.98;78.22
71436;SHT31;59251;51.326;12.370;2023-02-18T01:51:24;8.87;78.49
71436;SHT31;59251;51.326;12.370;2023-02-18T01:56:35;8.94;78.97
71436;SHT31;59251;51.326;12.370;2023-02-18T01:59:05;8.96;79.05
71436;SHT31;59251;51.326;12.370;2023-02-18T02:01:32;8.84;79.42
71436;SHT31;59251;51.326;12.370;2023-02-18T02:03:58;8.85;79.30
71436;SHT31;59251;51.326;12.370;2023-02-18T02:06:24;9.01;78.80
71436;SHT31;59251;51.326;12.370;2023-02-18T02:08:54;8.87;79.43
71436;SHT31;59251;51.326;12.370;2023-02-18T02:11:34;8.88;79.45
71436;SHT31;59251;51.326;12.370;2023-02-18T02:16:51;8.83;80.04
71436;SHT31;59251;51.326;12.370;2023-02-18T02:24:51;8.77;81.22
71436;SHT31;59251;51.326;12.370;2023-02-18T02:30:37;9.04;81.00
71436;SHT31;59251;51.326;12.370;2023-02-18T02:35:39;9.08;81.29
71436;SHT31;59251;51.326;12.370;2023-02-18T02:38:18;9.10;81.01
71436;SHT31;59251;51.326;12.370;2023-02-18T02:41:09;9.00;81.67
71436;SHT31;59251;51.326;12.370;2023-02-18T02:44:11;9.07;81.12
71436;SHT31;59251;51.326;12.370;2023-02-18T02:46:44;9.05;81.05
71436;SHT31;59251;51.326;12.370;2023-02-18T02:49:48;8.91;81.24
71436;SHT31;59251;51.326;12.370;2023-02-18T02:52:29;9.08;80.66
71436;SHT31;59251;51.326;12.370;2023-02-18T02:54:55;9.08;80.61
71436;SHT31;59251;51.326;12.370;2023-02-18T02:59:52;9.12;80.20
71436;SHT31;59251;51.326;12.370;2023-02-18T03:02:22;9.11;80.06
71436;SHT31;59251;51.326;12.370;2023-02-18T03:05:02;9.04;80.21
71436;SHT31;59251;51.326;12.370;2023-02-18T03:07:54;9.05;80.59
71436;SHT31;59251;51.326;12.370;2023-02-18T03:10:32;9.10;80.40
71436;SHT31;59251;51.326;12.370;2023-02-18T03:13:15;9.12;79.89
71436;SHT31;59251;51.326;12.370;2023-02-18T03:15:52;9.12;80.29
71436;SHT31;59251;51.326;12.370;2023-02-18T03:20:57;9.05;80.64
71436;SHT31;59251;51.326;12.370;2023-02-18T03:23:27;9.07;80.37
71436;SHT31;59251;51.326;12.370;2023-02-18T03:25:56;8.96;80.47
71436;SHT31;59251;51.326;12.370;2023-02-18T03:28:23;8.94;80.73
71436;SHT31;59251;51.326;12.370;2023-02-18T03:30:55;8.98;80.12
71436;SHT31;59251;51.326;12.370;2023-02-18T03:33:27;8.94;80.13
71436;SHT31;59251;51.326;12.370;2023-02-18T03:35:55;8.97;79.92
71436;SHT31;59251;51.326;12.370;2023-02-18T03:38:44;8.96;80.05
71436;SHT31;59251;51.326;12.370;2023-02-18T03:41:12;8.94;80.28
71436;SHT31;59251;51.326;12.370;2023-02-18T03:43:39;8.85;80.59
71436;SHT31;59251;51.326;12.370;2023-02-18T03:46:05;8.84;80.71
71436;SHT31;59251;51.326;12.370;2023-02-18T03:48:30;8.80;80.84
71436;SHT31;59251;51.326;12.370;2023-02-18T03:50:56;8.83;80.75
71436;SHT31;59251;51.326;12.370;2023-02-18T03:53:21;8.84;80.63
71436;SHT31;59251;51.326;12.370;2023-02-18T03:55:47;8.84;80.90
71436;SHT31;59251;51.326;12.370;2023-02-18T03:58:12;8.88;80.98
71436;SHT31;59251;51.326;12.370;2023-02-18T04:00:38;8.90;81.06
71436;SHT31;59251;51.326;12.370;2023-02-18T04:03:03;8.85;81.02
71436;SHT31;59251;51.326;12.370;2023-02-18T04:05:28;8.84;81.26
71436;SHT31;59251;51.326;12.370;2023-02-18T04:07:54;8.90;81.46
71436;SHT31;59251;51.326;12.370;2023-02-18T04:10:19;8.69;82.19
71436;SHT31;59251;51.326;12.370;2023-02-18T04:12:46;8.73;82.32
71436;SHT31;59251;51.326;12.370;2023-02-18T04:15:12;8.67;82.82
71436;SHT31;59251;51.326;12.370;2023-02-18T04:17:38;8.69;82.78
71436;SHT31;59251;51.326;12.370;2023-02-18T04:20:04;8.71;82.39
71436;SHT31;59251;51.326;12.370;2023-02-18T04:22:30;8.83;82.77
71436;SHT31;59251;51.326;12.370;2023-02-18T04:24:55;8.90;82.88
71436;SHT31;59251;51.326;12.370;2023-02-18T04:27:21;8.88;83.27
71436;SHT31;59251;51.326;12.370;2023-02-18T04:29:46;8.88;83.59
71436;SHT31;59251;51.326;12.370;2023-02-18T04:32:11;8.87;84.00
71436;SHT31;59251;51.326;12.370;2023-02-18T04:34:37;8.73;84.80
71436;SHT31;59251;51.326;12.370;2023-02-18T04:37:02;8.77;84.93
71436;SHT31;59251;51.326;12.370;2023-02-18T04:39:27;8.85;85.10
71436;SHT31;59251;51.326;12.370;2023-02-18T04:41:53;8.80;85.56
71436;SHT31;59251;51.326;12.370;2023-02-18T04:44:18;8.87;86.05
71436;SHT31;59251;51.326;12.370;2023-02-18T04:46:44;8.80;86.57
71436;SHT31;59251;51.326;12.370;2023-02-18T04:49:09;8.60;87.97
71436;SHT31;59251;51.326;12.370;2023-02-18T04:51:34;8.54;88.68
71436;SHT31;59251;51.326;12.370;2023-02-18T04:54:02;8.48;89.84
71436;SHT31;59251;51.326;12.370;2023-02-18T04:56:27;8.59;90.10
71436;SHT31;59251;51.326;12.370;2023-02-18T04:58:52;8.32;91.55
71436;SHT31;59251;51.326;12.370;2023-02-18T05:01:18;8.48;92.55
71436;SHT31;59251;51.326;12.370;2023-02-18T05:03:43;8.33;93.53
71436;SHT31;59251;51.326;12.370;2023-02-18T05:06:10;8.43;94.07
71436;SHT31;59251;51.326;12.370;2023-02-18T05:08:35;8.32;94.65
71436;SHT31;59251;51.326;12.370;2023-02-18T05:11:04;8.39;94.55
71436;SHT31;59251;51.326;12.370;2023-02-18T05:13:30;8.40;94.77
71436;SHT31;59251;51.326;12.370;2023-02-18T05:15:55;8.45;94.99
71436;SHT31;59251;51.326;12.370;2023-02-18T05:18:21;8.36;95.36
71436;SHT31;59251;51.326;12.370;2023-02-18T05:20:46;8.36;95.92
71436;SHT31;59251;51.326;12.370;2023-02-18T05:23:12;8.39;96.21
71436;SHT31;59251;51.326;12.370;2023-02-18T05:25:37;8.24;96.61
71436;SHT31;59251;51.326;12.370;2023-02-18T05:28:02;8.42;96.28
71436;SHT31;59251;51.326;12.370;2023-02-18T05:30:28;8.33;96.45
71436;SHT31;59251;51.326;12.370;2023-02-18T05:32:53;8.30;97.28
71436;SHT31;59251;51.326;12.370;2023-02-18T05:35:19;8.36;97.03
71436;SHT31;59251;51.326;12.370;2023-02-18T05:37:44;8.39;97.04
71436;SHT31;59251;51.326;12.370;2023-02-18T05:40:10;8.50;96.66
71436;SHT31;59251;51.326;12.370;2023-02-18T05:42:35;8.49;96.58
71436;SHT31;59251;51.326;12.370;2023-02-18T05:45:01;8.49;96.55
71436;SHT31;59251;51.326;12.370;2023-02-18T05:47:26;8.54;96.45
71436;SHT31;59251;51.326;12.370;2023-02-18T05:49:52;8.61;96.34
71436;SHT31;59251;51.326;12.370;2023-02-18T05:52:17;8.60;96.37
71436;SHT31;59251;51.326;12.370;2023-02-18T05:54:43;8.69;96.11
71436;SHT31;59251;51.326;12.370;2023-02-18T05:57:09;8.78;95.70
71436;SHT31;59251;51.326;12.370;2023-02-18T05:59:35;8.80;95.53
71436;SHT31;59251;51.326;12.370;2023-02-18T06:02:00;8.70;95.80
71436;SHT31;59251;51.326;12.370;2023-02-18T06:04:25;8.83;95.73
71436;SHT31;59251;51.326;12.370;2023-02-18T06:06:51;8.83;95.67
71436;SHT31;59251;51.326;12.370;2023-02-18T06:09:16;8.87;95.84
71436;SHT31;59251;51.326;12.370;2023-02-18T06:11:42;8.87;95.89
71436;SHT31;59251;51.326;12.370;2023-02-18T06:14:07;8.90;96.24
71436;SHT31;59251;51.326;12.370;2023-02-18T06:16:33;8.92;96.54
71436;SHT31;59251;51.326;12.370;2023-02-18T06:18:58;8.88;96.68
71436;SHT31;59251;51.326;12.370;2023-02-18T06:21:24;8.81;97.16
71436;SHT31;59251;51.326;12.370;2023-02-18T06:23:49;8.87;96.83
71436;SHT31;59251;51.326;12.370;2023-02-18T06:26:15;8.88;96.81
71436;SHT31;59251;51.326;12.370;2023-02-18T06:28:40;8.80;97.19
71436;SHT31;59251;51.326;12.370;2023-02-18T06:31:06;8.74;97.31
71436;SHT31;59251;51.326;12.370;2023-02-18T06:33:31;8.85;97.46
71436;SHT31;59251;51.326;12.370;2023-02-18T06:36:06;8.77;97.34
71436;SHT31;59251;51.326;12.370;2023-02-18T06:38:33;8.92;97.31
71436;SHT31;59251;51.326;12.370;2023-02-18T06:40:59;8.80;97.60
71436;SHT31;59251;51.326;12.370;2023-02-18T06:43:24;8.94;97.22
71436;SHT31;59251;51.326;12.370;2023-02-18T06:45:50;8.92;97.47
71436;SHT31;59251;51.326;12.370;2023-02-18T06:48:16;8.88;97.76
71436;SHT31;59251;51.326;12.370;2023-02-18T06:50:41;8.73;98.09
71436;SHT31;59251;51.326;12.370;2023-02-18T06:53:07;8.90;97.81
71436;SHT31;59251;51.326;12.370;2023-02-18T06:55:32;8.63;98.53
71436;SHT31;59251;51.326;12.370;2023-02-18T06:57:58;8.60;98.77
71436;SHT31;59251;51.326;12.370;2023-02-18T07:00:23;8.64;98.82
71436;SHT31;59251;51.326;12.370;2023-02-18T07:02:49;8.57;99.03
71436;SHT31;59251;51.326;12.370;2023-02-18T07:05:14;8.80;98.77
71436;SHT31;59251;51.326;12.370;2023-02-18T07:07:40;8.76;98.78
71436;SHT31;59251;51.326;12.370;2023-02-18T07:10:06;8.70;98.27
71436;SHT31;59251;51.326;12.370;2023-02-18T07:12:32;8.73;98.63
71436;SHT31;59251;51.326;12.370;2023-02-18T07:14:58;8.63;99.03
71436;SHT31;59251;51.326;12.370;2023-02-18T07:17:23;8.73;98.34
71436;SHT31;59251;51.326;12.370;2023-02-18T07:19:49;8.69;98.40
71436;SHT31;59251;51.326;12.370;2023-02-18T07:22:14;8.92;97.51
71436;SHT31;59251;51.326;12.370;2023-02-18T07:24:39;8.73;98.51
71436;SHT31;59251;51.326;12.370;2023-02-18T07:27:05;8.64;98.78
71436;SHT31;59251;51.326;12.370;2023-02-18T07:29:30;8.64;99.01
71436;SHT31;59251;51.326;12.370;2023-02-18T07:31:56;8.88;98.22
71436;SHT31;59251;51.326;12.370;2023-02-18T07:34:21;8.84;98.68
71436;SHT31;59251;51.326;12.370;2023-02-18T07:36:47;8.91;98.57
71436;SHT31;59251;51.326;12.370;2023-02-18T07:39:12;8.96;98.31
71436;SHT31;59251;51.326;12.370;2023-02-18T07:41:37;8.92;98.37
71436;SHT31;59251;51.326;12.370;2023-02-18T07:44:03;8.76;98.72
71436;SHT31;59251;51.326;12.370;2023-02-18T07:46:29;8.90;98.76
71436;SHT31;59251;51.326;12.370;2023-02-18T07:48:55;9.19;98.00
71436;SHT31;59251;51.326;12.370;2023-02-18T07:51:21;8.92;97.92
71436;SHT31;59251;51.326;12.370;2023-02-18T07:53:46;8.97;98.23
71436;SHT31;59251;51.326;12.370;2023-02-18T07:56:12;9.22;97.42
71436;SHT31;59251;51.326;12.370;2023-02-18T07:58:38;9.14;97.05
71436;SHT31;59251;51.326;12.370;2023-02-18T08:01:09;9.29;96.88
71436;SHT31;59251;51.326;12.370;2023-02-18T08:03:35;9.43;95.86
71436;SHT31;59251;51.326;12.370;2023-02-18T08:06:02;9.49;95.97
71436;SHT31;59251;51.326;12.370;2023-02-18T08:08:29;9.39;95.92
71436;SHT31;59251;51.326;12.370;2023-02-18T08:10:57;9.65;95.30
71436;SHT31;59251;51.326;12.370;2023-02-18T08:13:23;9.59;95.00
71436;SHT31;59251;51.326;12.370;2023-02-18T08:15:48;9.82;94.02
71436;SHT31;59251;51.326;12.370;2023-02-18T08:18:17;10.00;93.55
71436;SHT31;59251;51.326;12.370;2023-02-18T08:20:43;9.94;93.32
71436;SHT31;59251;51.326;12.370;2023-02-18T08:23:10;10.04;92.79
71436;SHT31;59251;51.326;12.370;2023-02-18T08:25:35;10.07;93.05
71436;SHT31;59251;51.326;12.370;2023-02-18T08:28:00;10.14;92.32
71436;SHT31;59251;51.326;12.370;2023-02-18T08:30:26;10.24;92.30
71436;SHT31;59251;51.326;12.370;2023-02-18T08:32:51;10.41;91.66
71436;SHT31;59251;51.326;12.370;2023-02-18T08:35:17;10.42;91.19
71436;SHT31;59251;51.326;12.370;2023-02-18T08:37:42;10.46;90.95
71436;SHT31;59251;51.326;12.370;2023-02-18T08:40:10;10.61;90.81
71436;SHT31;59251;51.326;12.370;2023-02-18T08:42:35;10.59;91.13
71436;SHT31;59251;51.326;12.370;2023-02-18T08:45:01;10.52;91.45
71436;SHT31;59251;51.326;12.370;2023-02-18T08:47:26;10.69;91.14
71436;SHT31;59251;51.326;12.370;2023-02-18T08:49:52;10.56;91.74
71436;SHT31;59251;51.326;12.370;2023-02-18T08:52:18;10.51;92.76
71436;SHT31;59251;51.326;12.370;2023-02-18T08:54:44;10.51;93.53
71436;SHT31;59251;51.326;12.370;2023-02-18T08:57:09;10.66;92.64
71436;SHT31;59251;51.326;12.370;2023-02-18T08:59:35;10.72;92.39
71436;SHT31;59251;51.326;12.370;2023-02-18T09:02:00;10.66;92.43
71436;SHT31;59251;51.326;12.370;2023-02-18T09:04:26;10.76;92.07
71436;SHT31;59251;51.326;12.370;2023-02-18T09:06:51;10.80;92.56
71436;SHT31;59251;51.326;12.370;2023-02-18T09:09:17;10.69;92.76
71436;SHT31;59251;51.326;12.370;2023-02-18T09:11:43;10.72;93.04
71436;SHT31;59251;51.326;12.370;2023-02-18T09:14:09;10.76;93.28
71436;SHT31;59251;51.326;12.370;2023-02-18T09:16:34;10.70;92.56
71436;SHT31;59251;51.326;12.370;2023-02-18T09:19:00;10.80;92.54
71436;SHT31;59251;51.326;12.370;2023-02-18T09:21:26;10.88;91.85
71436;SHT31;59251;51.326;12.370;2023-02-18T09:23:51;10.90;91.79
71436;SHT31;59251;51.326;12.370;2023-02-18T09:26:19;10.99;91.01
71436;SHT31;59251;51.326;12.370;2023-02-18T09:28:48;10.99;91.60
71436;SHT31;59251;51.326;12.370;2023-02-18T09:31:16;10.97;91.90
71436;SHT31;59251;51.326;12.370;2023-02-18T09:33:57;11.06;91.16
71436;SHT31;59251;51.326;12.370;2023-02-18T09:36:23;11.10;90.77
71436;SHT31;59251;51.326;12.370;2023-02-18T09:38:49;11.10;90.95
71436;SHT31;59251;51.326;12.370;2023-02-18T09:44:26;11.23;90.46
71436;SHT31;59251;51.326;12.370;2023-02-18T09:47:02;11.41;90.11
71436;SHT31;59251;51.326;12.370;2023-02-18T09:49:31;11.47;89.83
71436;SHT31;59251;51.326;12.370;2023-02-18T09:52:27;11.55;89.05
71436;SHT31;59251;51.326;12.370;2023-02-18T09:54:54;11.68;88.83
71436;SHT31;59251;51.326;12.370;2023-02-18T09:57:39;11.81;88.62
71436;SHT31;59251;51.326;12.370;2023-02-18T10:00:12;11.96;87.98
71436;SHT31;59251;51.326;12.370;2023-02-18T10:02:49;12.00;87.40
71436;SHT31;59251;51.326;12.370;2023-02-18T10:05:17;12.06;87.46
71436;SHT31;59251;51.326;12.370;2023-02-18T10:07:43;12.24;86.87
71436;SHT31;59251;51.326;12.370;2023-02-18T10:10:44;12.41;86.10
71436;SHT31;59251;51.326;12.370;2023-02-18T10:13:19;12.50;85.93
71436;SHT31;59251;51.326;12.370;2023-02-18T10:15:45;12.51;85.87
71436;SHT31;59251;51.326;12.370;2023-02-18T10:18:39;12.62;85.24
71436;SHT31;59251;51.326;12.370;2023-02-18T10:21:09;12.57;85.34
71436;SHT31;59251;51.326;12.370;2023-02-18T10:23:38;12.71;85.21
71436;SHT31;59251;51.326;12.370;2023-02-18T10:26:08;12.88;84.67
71436;SHT31;59251;51.326;12.370;2023-02-18T10:28:35;12.85;84.76
71436;SHT31;59251;51.326;12.370;2023-02-18T10:31:06;12.75;85.28
71436;SHT31;59251;51.326;12.370;2023-02-18T10:36:50;12.77;84.40
71436;SHT31;59251;51.326;12.370;2023-02-18T10:43:34;12.81;83.93
71436;SHT31;59251;51.326;12.370;2023-02-18T10:46:10;12.75;83.80
71436;SHT31;59251;51.326;12.370;2023-02-18T10:48:44;12.77;83.77
71436;SHT31;59251;51.326;12.370;2023-02-18T10:51:19;12.80;83.55
71436;SHT31;59251;51.326;12.370;2023-02-18T10:53:48;12.84;83.25
71436;SHT31;59251;51.326;12.370;2023-02-18T11:01:35;12.81;83.56
71436;SHT31;59251;51.326;12.370;2023-02-18T11:04:17;12.80;83.16
71436;SHT31;59251;51.326;12.370;2023-02-18T11:06:46;12.67;83.48
71436;SHT31;59251;51.326;12.370;2023-02-18T11:09:33;12.77;83.16
71436;SHT31;59251;51.326;12.370;2023-02-18T11:12:09;12.78;83.19
71436;SHT31;59251;51.326;12.370;2023-02-18T11:14:41;12.67;83.33
71436;SHT31;59251;51.326;12.370;2023-02-18T11:19:56;12.67;82.75
71436;SHT31;59251;51.326;12.370;2023-02-18T11:22:25;12.68;82.55
71436;SHT31;59251;51.326;12.370;2023-02-18T11:24:56;12.65;82.18
71436;SHT31;59251;51.326;12.370;2023-02-18T11:29:59;12.60;82.56
71436;SHT31;59251;51.326;12.370;2023-02-18T11:32:27;12.62;82.53
71436;SHT31;59251;51.326;12.370;2023-02-18T11:34:53;12.68;82.23
71436;SHT31;59251;51.326;12.370;2023-02-18T11:37:20;12.57;82.10
71436;SHT31;59251;51.326;12.370;2023-02-18T11:39:49;12.45;82.21
71436;SHT31;59251;51.326;12.370;2023-02-18T11:42:18;12.61;81.91
71436;SHT31;59251;51.326;12.370;2023-02-18T11:44:58;12.54;81.48
71436;SHT31;59251;51.326;12.370;2023-02-18T11:47:35;12.54;81.21
71436;SHT31;59251;51.326;12.370;2023-02-18T11:50:16;12.48;80.84
71436;SHT31;59251;51.326;12.370;2023-02-18T11:52:45;12.38;83.03
71436;SHT31;59251;51.326;12.370;2023-02-18T11:55:24;12.09;84.67
71436;SHT31;59251;51.326;12.370;2023-02-18T11:58:03;11.96;85.21
71436;SHT31;59251;51.326;12.370;2023-02-18T12:00:39;12.09;83.70
71436;SHT31;59251;51.326;12.370;2023-02-18T12:06:10;12.23;82.46
71436;SHT31;59251;51.326;12.370;2023-02-18T12:08:52;12.38;81.60
71436;SHT31;59251;51.326;12.370;2023-02-18T13:28:42;12.38;77.57
71436;SHT31;59251;51.326;12.370;2023-02-18T13:31:45;12.45;77.68
71436;SHT31;59251;51.326;12.370;2023-02-18T13:37:07;12.37;77.87
71436;SHT31;59251;51.326;12.370;2023-02-18T13:39:37;12.37;77.20
71436;SHT31;59251;51.326;12.370;2023-02-18T13:55:39;12.19;78.66
71436;SHT31;59251;51.326;12.370;2023-02-18T13:58:13;12.30;78.62
71436;SHT31;59251;51.326;12.370;2023-02-18T14:00:48;12.26;78.23
71436;SHT31;59251;51.326;12.370;2023-02-18T14:03:34;12.27;78.36
71436;SHT31;59251;51.326;12.370;2023-02-18T14:06:03;12.23;78.24
71436;SHT31;59251;51.326;12.370;2023-02-18T14:08:38;12.17;78.52
71436;SHT31;59251;51.326;12.370;2023-02-18T14:16:14;12.17;78.11
71436;SHT31;59251;51.326;12.370;2023-02-18T14:21:35;12.12;78.55
71436;SHT31;59251;51.326;12.370;2023-02-18T14:24:03;12.14;78.51
71436;SHT31;59251;51.326;12.370;2023-02-18T14:26:47;12.05;78.81
71436;SHT31;59251;51.326;12.370;2023-02-18T14:29:23;12.03;79.15
71436;SHT31;59251;51.326;12.370;2023-02-18T14:31:53;11.90;79.43
71436;SHT31;59251;51.326;12.370;2023-02-18T14:45:29;12.96;76.51
71436;SHT31;59251;51.326;12.370;2023-02-18T14:50:36;13.67;74.89
71436;SHT31;59251;51.326;12.370;2023-02-18T14:53:07;14.01;73.67
71436;SHT31;59251;51.326;12.370;2023-02-18T14:55:40;14.69;71.51
71436;SHT31;59251;51.326;12.370;2023-02-18T15:00:49;13.70;74.38
71436;SHT31;59251;51.326;12.370;2023-02-18T15:03:18;12.57;76.87
71436;SHT31;59251;51.326;12.370;2023-02-18T15:05:47;12.51;78.09
71436;SHT31;59251;51.326;12.370;2023-02-18T15:08:20;12.24;79.04
71436;SHT31;59251;51.326;12.370;2023-02-18T15:10:56;12.22;79.65
71436;SHT31;59251;51.326;12.370;2023-02-18T15:15:56;11.79;80.68
71436;SHT31;59251;51.326;12.370;2023-02-18T15:18:33;11.95;80.55
71436;SHT31;59251;51.326;12.370;2023-02-18T15:21:01;11.83;81.13
71436;SHT31;59251;51.326;12.370;2023-02-18T15:23:28;11.78;81.39
71436;SHT31;59251;51.326;12.370;2023-02-18T15:25:53;11.82;81.32
71436;SHT31;59251;51.326;12.370;2023-02-18T15:28:25;11.62;81.95
71436;SHT31;59251;51.326;12.370;2023-02-18T15:30:51;11.59;82.33
71436;SHT31;59251;51.326;12.370;2023-02-18T15:33:18;11.58;82.48
71436;SHT31;59251;51.326;12.370;2023-02-18T15:35:45;11.44;83.44
71436;SHT31;59251;51.326;12.370;2023-02-18T15:38:15;11.41;83.74
71436;SHT31;59251;51.326;12.370;2023-02-18T15:40:41;11.28;84.24
71436;SHT31;59251;51.326;12.370;2023-02-18T15:43:07;11.24;84.46
71436;SHT31;59251;51.326;12.370;2023-02-18T15:45:38;11.27;84.47
71436;SHT31;59251;51.326;12.370;2023-02-18T15:48:04;11.20;84.42
71436;SHT31;59251;51.326;12.370;2023-02-18T15:50:46;11.23;84.48
71436;SHT31;59251;51.326;12.370;2023-02-18T15:53:15;11.17;84.77
71436;SHT31;59251;51.326;12.370;2023-02-18T15:55:42;11.18;84.75
71436;SHT31;59251;51.326;12.370;2023-02-18T15:58:13;11.16;84.72
71436;SHT31;59251;51.326;12.370;2023-02-18T16:00:51;11.13;84.70
71436;SHT31;59251;51.326;12.370;2023-02-18T16:03:30;11.07;84.87
71436;SHT31;59251;51.326;12.370;2023-02-18T16:11:35;11.04;85.47
71436;SHT31;59251;51.326;12.370;2023-02-18T16:14:03;10.96;85.44
71436;SHT31;59251;51.326;12.370;2023-02-18T16:16:33;10.95;85.79
71436;SHT31;59251;51.326;12.370;2023-02-18T16:18:59;10.95;86.05
71436;SHT31;59251;51.326;12.370;2023-02-18T16:21:37;10.89;86.66
71436;SHT31;59251;51.326;12.370;2023-02-18T16:24:22;10.76;87.12
71436;SHT31;59251;51.326;12.370;2023-02-18T16:26:49;10.77;87.13
71436;SHT31;59251;51.326;12.370;2023-02-18T16:29:24;10.73;87.53
71436;SHT31;59251;51.326;12.370;2023-02-18T16:31:49;10.79;87.39
71436;SHT31;59251;51.326;12.370;2023-02-18T16:34:15;10.79;87.27
71436;SHT31;59251;51.326;12.370;2023-02-18T16:36:40;10.73;87.26
71436;SHT31;59251;51.326;12.370;2023-02-18T16:39:27;10.65;87.74
71436;SHT31;59251;51.326;12.370;2023-02-18T16:41:53;10.73;87.46
71436;SHT31;59251;51.326;12.370;2023-02-18T16:44:19;10.72;87.48
71436;SHT31;59251;51.326;12.370;2023-02-18T16:46:44;10.73;87.51
71436;SHT31;59251;51.326;12.370;2023-02-18T16:49:12;10.76;87.42
71436;SHT31;59251;51.326;12.370;2023-02-18T16:51:39;10.73;87.46
71436;SHT31;59251;51.326;12.370;2023-02-18T16:54:04;10.75;87.46
71436;SHT31;59251;51.326;12.370;2023-02-18T16:56:31;10.73;87.57
71436;SHT31;59251;51.326;12.370;2023-02-18T16:58:57;10.73;87.49
71436;SHT31;59251;51.326;12.370;2023-02-18T17:01:28;10.73;87.59
71436;SHT31;59251;51.326;12.370;2023-02-18T17:03:55;10.72;87.71
71436;SHT31;59251;51.326;12.370;2023-02-18T17:06:21;10.66;87.89
71436;SHT31;59251;51.326;12.370;2023-02-18T17:08:47;10.69;87.74
71436;SHT31;59251;51.326;12.370;2023-02-18T17:11:25;10.70;87.68
71436;SHT31;59251;51.326;12.370;2023-02-18T17:13:52;10.70;87.57
71436;SHT31;59251;51.326;12.370;2023-02-18T17:16:18;10.70;87.44
71436;SHT31;59251;51.326;12.370;2023-02-18T17:18:45;10.70;87.56
71436;SHT31;59251;51.326;12.370;2023-02-18T17:21:15;10.66;87.63
71436;SHT31;59251;51.326;12.370;2023-02-18T17:23:41;10.63;87.76
71436;SHT31;59251;51.326;12.370;2023-02-18T17:26:17;10.68;87.77
71436;SHT31;59251;51.326;12.370;2023-02-18T17:28:43;10.59;88.01
71436;SHT31;59251;51.326;12.370;2023-02-18T17:31:14;10.59;88.15
71436;SHT31;59251;51.326;12.370;2023-02-18T17:33:42;10.61;88.05
71436;SHT31;59251;51.326;12.370;2023-02-18T17:36:09;10.59;88.29
71436;SHT31;59251;51.326;12.370;2023-02-18T17:38:35;10.53;88.35
71436;SHT31;59251;51.326;12.370;2023-02-18T17:41:00;10.55;88.31
71436;SHT31;59251;51.326;12.370;2023-02-18T17:43:25;10.55;88.38
71436;SHT31;59251;51.326;12.370;2023-02-18T17:45:52;10.56;88.58
71436;SHT31;59251;51.326;12.370;2023-02-18T17:48:19;10.55;88.65
71436;SHT31;59251;51.326;12.370;2023-02-18T17:50:44;10.49;89.14
71436;SHT31;59251;51.326;12.370;2023-02-18T17:53:11;10.42;89.50
71436;SHT31;59251;51.326;12.370;2023-02-18T17:55:37;10.45;89.83
71436;SHT31;59251;51.326;12.370;2023-02-18T17:58:02;10.38;90.22
71436;SHT31;59251;51.326;12.370;2023-02-18T18:00:34;10.28;90.40
71436;SHT31;59251;51.326;12.370;2023-02-18T18:03:00;10.28;90.47
71436;SHT31;59251;51.326;12.370;2023-02-18T18:05:28;10.31;90.39
71436;SHT31;59251;51.326;12.370;2023-02-18T18:07:54;10.30;90.57
71436;SHT31;59251;51.326;12.370;2023-02-18T18:10:22;10.25;90.61
71436;SHT31;59251;51.326;12.370;2023-02-18T18:12:49;10.30;90.31
71436;SHT31;59251;51.326;12.370;2023-02-18T18:15:22;10.34;90.24
71436;SHT31;59251;51.326;12.370;2023-02-18T18:17:48;10.31;90.43
71436;SHT31;59251;51.326;12.370;2023-02-18T18:20:14;10.31;90.39
71436;SHT31;59251;51.326;12.370;2023-02-18T18:22:39;10.32;90.35
71436;SHT31;59251;51.326;12.370;2023-02-18T18:25:18;10.34;90.13
71436;SHT31;59251;51.326;12.370;2023-02-18T18:27:44;10.32;90.13